Noatak Airport Noatak US
ICAO: PAWN
IATA:
Category: Medium
Scheduled Services:

Elevation: 88 ft
TransAlt. 18000 ft.

Airport Communications:
AWOS 3:135.75
ANCHORAGE CNTR:119.2
KOTZEBUE RDO:122.4
CTAF/UNICOM:122.8

PAWN Zoom In..

If you have problems with the map follow the link
https://www.worldairports.se/pages/airport.php?
ICAO=PAWN

Runways:

(A) RW 01 length 3992 ft width 60 ft
---- / hdg 7

(B) RW 19 length 3992 ft width 60 ft
---- / hdg 187

Location; PAWN
Day. 22 / Time. 10.56 Zulu
* Altimeter: 29.65
* Temperature: -27° c. 16.6°f.
* Wind from: 010° Speed 03 kn.
Dewpoint: -30° c.
Visibility: 10 Statute Miles.
Clouds: Clear (automated report).

PAWN 221056Z AUTO 01003KT 10SM CLR M27/M30 A2965 RMK AO2 SLP055 T12721300 FZRANO


Wind From 010°
Speed 03 kn.

 
 
jpsmedia worldairports.se 2020   terms of use